Time;durP1;ratioP1;P1;durP2;ratioP2;P2;SDS_P1;SDS_P2;PMS_P1;PMS_P2;Temp;Humidity;BMP_temperature;BMP_pressure;BME280_temperature;BME280_humidity;BME280_pressure;Samples;Min_cycle;Max_cycle;Signal;HPM_P1;HPM_P2
2024/02/14 00:02:07;;;;;;;10.15;3.95;;;;;;;;;;4926364;29;20047;-86
2024/02/14 00:04:53;;;;;;;8.23;3.95;;;;;;;;;;4916436;29;20039;-85
2024/02/14 00:07:39;;;;;;;9.88;4.10;;;;;;;;;;4919563;29;20071;-85
2024/02/14 00:10:24;;;;;;;10.65;4.03;;;;;;;;;;4914802;29;20031;-85
2024/02/14 00:13:10;;;;;;;11.50;4.55;;;;;;;;;;4936619;28;20046;-85
2024/02/14 00:15:56;;;;;;;9.77;4.65;;;;;;;;;;4942391;29;20042;-84
2024/02/14 00:18:42;;;;;;;11.63;4.45;;;;;;;;;;4935918;28;20469;-85
2024/02/14 00:21:27;;;;;;;8.25;4.28;;;;;;;;;;4933451;28;20360;-84
2024/02/14 00:24:12;;;;;;;9.23;4.47;;;;;;;;;;4931377;29;20479;-84
2024/02/14 00:27:14;;;;;;;;;;;;;;;;;;4925407;29;20031;-85
2024/02/14 00:29:59;;;;;;;8.65;3.65;;;;;;;;;;4920132;29;19957;-85
2024/02/14 00:32:45;;;;;;;11.57;3.63;;;;;;;;;;4923912;29;20097;-85
2024/02/14 00:35:30;;;;;;;5.95;3.42;;;;;;;;;;4920112;29;20039;-84
2024/02/14 00:38:16;;;;;;;8.13;4.30;;;;;;;;;;4914232;29;20027;-85
2024/02/14 00:41:01;;;;;;;8.48;3.58;;;;;;;;;;4923862;29;20038;-84
2024/02/14 00:43:46;;;;;;;7.38;4.13;;;;;;;;;;4940066;29;20082;-85
2024/02/14 00:46:31;;;;;;;7.30;3.50;;;;;;;;;;4932600;29;20035;-84
2024/02/14 00:49:17;;;;;;;8.65;3.35;;;;;;;;;;4924180;29;20050;-84
2024/02/14 00:52:02;;;;;;;7.68;3.80;;;;;;;;;;4931861;29;20427;-84
2024/02/14 00:54:47;;;;;;;8.40;4.25;;;;;;;;;;4947100;29;20027;-84
2024/02/14 00:57:33;;;;;;;9.43;3.75;;;;;;;;;;4954219;29;20038;-84
2024/02/14 01:00:18;;;;;;;8.70;3.85;;;;;;;;;;4966266;29;20110;-84
2024/02/14 01:03:04;;;;;;;7.90;3.70;;;;;;;;;;4943575;29;20155;-85
2024/02/14 01:05:49;;;;;;;8.38;3.70;;;;;;;;;;4953933;28;20031;-85
2024/02/14 01:08:36;;;;;;;8.05;3.50;;;;;;;;;;4921066;29;20035;-86
2024/02/14 01:11:21;;;;;;;6.93;3.47;;;;;;;;;;4917305;28;20049;-83
2024/02/14 01:14:06;;;;;;;7.60;3.22;;;;;;;;;;4911928;29;20085;-85
2024/02/14 01:16:53;;;;;;;5.38;3.30;;;;;;;;;;4940976;29;20403;-86
2024/02/14 01:19:39;;;;;;;8.23;3.38;;;;;;;;;;4931524;29;20031;-85
2024/02/14 01:22:24;;;;;;;8.07;3.95;;;;;;;;;;4919615;29;20091;-84
2024/02/14 01:25:10;;;;;;;8.85;3.80;;;;;;;;;;4929510;29;20588;-85
2024/02/14 01:27:54;;;;;;;10.55;4.45;;;;;;;;;;4942185;29;20674;-84
2024/02/14 01:30:41;;;;;;;5.15;3.08;;;;;;;;;;4925280;29;20024;-84
2024/02/14 01:33:26;;;;;;;6.95;3.67;;;;;;;;;;4935053;29;20133;-83
2024/02/14 01:36:11;;;;;;;8.90;3.17;;;;;;;;;;4922507;29;20056;-82
2024/02/14 01:38:56;;;;;;;7.68;3.10;;;;;;;;;;4924929;29;20027;-84
2024/02/14 01:41:48;;;;;;;12.73;6.32;;;;;;;;;;4919874;29;20035;-85
2024/02/14 01:44:33;;;;;;;12.25;5.07;;;;;;;;;;4927454;29;20039;-84
2024/02/14 01:47:19;;;;;;;8.50;4.05;;;;;;;;;;4930073;29;20459;-83
2024/02/14 01:50:05;;;;;;;8.70;4.00;;;;;;;;;;4913943;29;20047;-84
2024/02/14 01:52:51;;;;;;;5.43;2.95;;;;;;;;;;4919677;29;20043;-84
2024/02/14 01:55:37;;;;;;;6.30;3.13;;;;;;;;;;4928785;29;20536;-84
2024/02/14 01:58:22;;;;;;;7.72;3.80;;;;;;;;;;4926017;29;20025;-85
2024/02/14 02:01:09;;;;;;;7.03;3.45;;;;;;;;;;4921411;29;20202;-85
2024/02/14 02:03:55;;;;;;;5.80;2.95;;;;;;;;;;4925585;29;20641;-83
2024/02/14 02:06:43;;;;;;;7.65;3.72;;;;;;;;;;4924307;29;22872;-85
2024/02/14 02:09:31;;;;;;;7.00;3.30;;;;;;;;;;4923117;29;20114;-85
2024/02/14 02:12:16;;;;;;;6.22;2.78;;;;;;;;;;4908586;29;20381;-86
2024/02/14 02:15:02;;;;;;;4.85;2.92;;;;;;;;;;4923376;29;20036;-86
2024/02/14 02:17:52;;;;;;;6.28;2.95;;;;;;;;;;4934459;29;20036;-84
2024/02/14 02:20:38;;;;;;;3.47;2.33;;;;;;;;;;4923220;29;20039;-85
2024/02/14 02:23:23;;;;;;;6.90;2.42;;;;;;;;;;4923180;29;20032;-83
2024/02/14 02:26:09;;;;;;;7.78;3.50;;;;;;;;;;4919828;29;20027;-84
2024/02/14 02:28:59;;;;;;;7.85;2.90;;;;;;;;;;4922512;29;20583;-85
2024/02/14 02:31:45;;;;;;;7.15;3.00;;;;;;;;;;4906835;29;20031;-85
2024/02/14 02:34:31;;;;;;;7.68;2.97;;;;;;;;;;4924396;29;20031;-84
2024/02/14 02:37:16;;;;;;;6.55;3.05;;;;;;;;;;4920293;29;20151;-84
2024/02/14 02:40:01;;;;;;;5.43;3.20;;;;;;;;;;4916288;29;20106;-84
2024/02/14 02:42:47;;;;;;;6.03;3.65;;;;;;;;;;4919912;29;20030;-84
2024/02/14 02:45:32;;;;;;;9.65;3.22;;;;;;;;;;4925557;29;20030;-83
2024/02/14 02:48:20;;;;;;;6.22;2.95;;;;;;;;;;4928590;29;20055;-84
2024/02/14 02:51:05;;;;;;;9.18;2.85;;;;;;;;;;4922661;29;20036;-83
2024/02/14 02:53:54;;;;;;;7.18;3.03;;;;;;;;;;4918188;29;20027;-83
2024/02/14 02:56:40;;;;;;;5.43;2.70;;;;;;;;;;4922048;29;20064;-84
2024/02/14 02:59:29;;;;;;;8.05;3.25;;;;;;;;;;4919748;29;20093;-82
2024/02/14 03:02:15;;;;;;;10.25;3.15;;;;;;;;;;4925855;29;20023;-83
2024/02/14 03:05:02;;;;;;;8.85;3.20;;;;;;;;;;4942007;29;20035;-84
2024/02/14 03:07:49;;;;;;;6.43;3.40;;;;;;;;;;4928188;29;20039;-83
2024/02/14 03:10:35;;;;;;;7.78;3.15;;;;;;;;;;4930925;29;20041;-84
2024/02/14 03:13:20;;;;;;;6.45;2.95;;;;;;;;;;4920529;29;20016;-85
2024/02/14 03:16:05;;;;;;;6.40;2.70;;;;;;;;;;4915113;29;20024;-85
2024/02/14 03:18:50;;;;;;;5.68;3.13;;;;;;;;;;4919103;29;20479;-83
2024/02/14 03:21:36;;;;;;;7.30;3.30;;;;;;;;;;4922684;29;20047;-84
2024/02/14 03:24:21;;;;;;;7.03;3.20;;;;;;;;;;4933834;29;20031;-84
2024/02/14 03:27:06;;;;;;;5.85;2.72;;;;;;;;;;4930408;29;20032;-84
2024/02/14 03:29:58;;;;;;;5.97;3.28;;;;;;;;;;4935848;29;20062;-83
2024/02/14 03:32:43;;;;;;;6.70;2.78;;;;;;;;;;4919268;29;20031;-84
2024/02/14 03:35:30;;;;;;;6.78;3.05;;;;;;;;;;4930537;29;20031;-84
2024/02/14 03:38:24;;;;;;;8.43;3.20;;;;;;;;;;4939304;29;20110;-84
2024/02/14 03:41:09;;;;;;;7.05;2.67;;;;;;;;;;4920358;29;20050;-84
2024/02/14 03:43:58;;;;;;;5.43;2.92;;;;;;;;;;4930555;29;20026;-84
2024/02/14 03:46:43;;;;;;;6.65;2.85;;;;;;;;;;4920194;29;20042;-84
2024/02/14 03:49:30;;;;;;;7.65;2.65;;;;;;;;;;4923889;29;20090;-83
2024/02/14 03:52:15;;;;;;;5.05;2.67;;;;;;;;;;4932421;29;20110;-84
2024/02/14 03:55:01;;;;;;;8.60;2.90;;;;;;;;;;4925252;29;20039;-84
2024/02/14 03:57:47;;;;;;;7.03;2.75;;;;;;;;;;4925886;29;20031;-84
2024/02/14 04:00:35;;;;;;;5.78;2.85;;;;;;;;;;4937510;29;20036;-85
2024/02/14 04:03:20;;;;;;;6.47;2.58;;;;;;;;;;4922289;28;20731;-85
2024/02/14 04:06:06;;;;;;;7.22;3.00;;;;;;;;;;4928299;29;20038;-84
2024/02/14 04:08:52;;;;;;;5.30;2.83;;;;;;;;;;4921812;29;20035;-83
2024/02/14 04:11:37;;;;;;;10.55;3.00;;;;;;;;;;4926704;29;20034;-82
2024/02/14 04:14:22;;;;;;;12.07;4.20;;;;;;;;;;4922440;29;20039;-82
2024/02/14 04:17:08;;;;;;;5.38;2.85;;;;;;;;;;4928160;29;20028;-82
2024/02/14 04:19:53;;;;;;;7.60;2.92;;;;;;;;;;4910433;29;20023;-84
2024/02/14 04:22:39;;;;;;;8.30;2.92;;;;;;;;;;4918010;29;20032;-82
2024/02/14 04:25:24;;;;;;;6.70;2.50;;;;;;;;;;4945698;29;20074;-83
2024/02/14 04:28:11;;;;;;;5.88;2.75;;;;;;;;;;4924268;29;20086;-83
2024/02/14 04:30:57;;;;;;;7.20;2.63;;;;;;;;;;4928664;28;20109;-83
2024/02/14 04:33:44;;;;;;;6.47;2.97;;;;;;;;;;4925398;29;20058;-83
2024/02/14 04:36:32;;;;;;;8.80;4.82;;;;;;;;;;4926198;29;20064;-84
2024/02/14 04:39:18;;;;;;;8.20;3.80;;;;;;;;;;4927005;29;20031;-84
2024/02/14 04:42:04;;;;;;;7.57;3.35;;;;;;;;;;4930251;29;20031;-84
2024/02/14 04:44:49;;;;;;;7.82;3.13;;;;;;;;;;4927825;29;20043;-84
2024/02/14 04:47:35;;;;;;;5.68;2.90;;;;;;;;;;4924126;29;20041;-82
2024/02/14 04:50:21;;;;;;;8.32;3.65;;;;;;;;;;4925540;29;20048;-84
2024/02/14 04:53:06;;;;;;;7.63;3.80;;;;;;;;;;4929629;29;20030;-84
2024/02/14 04:55:53;;;;;;;7.45;3.25;;;;;;;;;;4924691;29;20454;-85
2024/02/14 04:58:38;;;;;;;10.98;3.20;;;;;;;;;;4919491;29;20040;-84
2024/02/14 05:01:24;;;;;;;4.72;2.83;;;;;;;;;;4920339;29;20031;-84
2024/02/14 05:04:10;;;;;;;6.32;2.95;;;;;;;;;;4930479;29;21338;-86
2024/02/14 05:06:53;;;;;;;6.05;2.45;;;;;;;;;;4960049;28;20061;-85
2024/02/14 05:09:38;;;;;;;6.53;3.05;;;;;;;;;;4956346;29;20043;-84
2024/02/14 05:12:23;;;;;;;3.88;2.78;;;;;;;;;;4959572;29;20030;-85
2024/02/14 05:15:12;;;;;;;4.70;2.70;;;;;;;;;;4957494;28;20042;-84
2024/02/14 05:18:04;;;;;;;5.78;2.58;;;;;;;;;;4951394;28;20023;-86
2024/02/14 05:20:50;;;;;;;8.13;2.80;;;;;;;;;;4923567;29;20038;-86
2024/02/14 05:23:36;;;;;;;5.45;2.75;;;;;;;;;;4948904;29;20007;-84
2024/02/14 05:26:22;;;;;;;8.13;2.63;;;;;;;;;;4937627;28;20034;-85
2024/02/14 05:29:07;;;;;;;4.55;2.60;;;;;;;;;;4915285;29;20470;-84
2024/02/14 05:31:55;;;;;;;5.85;2.63;;;;;;;;;;4917317;29;20050;-85
2024/02/14 05:34:40;;;;;;;6.18;2.50;;;;;;;;;;4924176;29;20028;-85
2024/02/14 05:37:27;;;;;;;6.18;3.25;;;;;;;;;;4912769;29;20023;-85
2024/02/14 05:40:12;;;;;;;6.85;2.80;;;;;;;;;;4914184;29;20028;-85
2024/02/14 05:42:58;;;;;;;4.85;2.28;;;;;;;;;;4915702;29;20082;-85
2024/02/14 05:45:43;;;;;;;7.90;2.45;;;;;;;;;;4920073;29;20126;-84
2024/02/14 05:48:28;;;;;;;6.57;2.75;;;;;;;;;;4913146;29;20040;-88
2024/02/14 05:51:14;;;;;;;6.05;2.47;;;;;;;;;;4901830;29;20032;-85
2024/02/14 05:53:57;;;;;;;6.72;3.35;;;;;;;;;;4907198;29;20599;-83
2024/02/14 05:56:43;;;;;;;8.75;3.30;;;;;;;;;;4900406;29;20522;-84
2024/02/14 05:59:32;;;;;;;8.32;3.15;;;;;;;;;;4901386;29;20110;-83
2024/02/14 06:02:17;;;;;;;9.90;5.25;;;;;;;;;;4902188;29;20031;-85
2024/02/14 06:05:03;;;;;;;9.48;3.00;;;;;;;;;;4917025;29;20035;-86
2024/02/14 06:07:48;;;;;;;7.50;3.92;;;;;;;;;;4903099;29;20043;-88
2024/02/14 06:10:34;;;;;;;8.95;2.90;;;;;;;;;;4904620;29;20111;-89
2024/02/14 06:13:20;;;;;;;5.93;2.83;;;;;;;;;;4896340;29;20384;-89
2024/02/14 06:16:06;;;;;;;7.13;2.97;;;;;;;;;;4913862;29;20107;-91
2024/02/14 06:18:51;;;;;;;7.60;2.70;;;;;;;;;;4903752;29;20036;-90
2024/02/14 06:21:37;;;;;;;6.93;3.03;;;;;;;;;;4913824;29;20028;-89
2024/02/14 06:24:26;;;;;;;4.50;2.50;;;;;;;;;;4916989;29;20040;-92
2024/02/14 06:27:14;;;;;;;7.78;2.55;;;;;;;;;;4897011;29;20040;-90
2024/02/14 06:29:59;;;;;;;4.15;2.22;;;;;;;;;;4913792;29;20047;-89
2024/02/14 06:32:54;;;;;;;7.13;2.55;;;;;;;;;;4910576;29;20349;-91
2024/02/14 06:35:39;;;;;;;6.78;2.53;;;;;;;;;;4910797;29;20459;-89
2024/02/14 06:38:25;;;;;;;4.47;2.53;;;;;;;;;;4899744;29;20028;-90
2024/02/14 06:41:11;;;;;;;6.95;2.78;;;;;;;;;;4911776;29;20027;-89
2024/02/14 06:43:58;;;;;;;6.82;2.85;;;;;;;;;;4910643;29;20059;-90
2024/02/14 06:46:43;;;;;;;4.97;2.55;;;;;;;;;;4914769;29;20034;-90
2024/02/14 06:49:29;;;;;;;5.82;2.88;;;;;;;;;;4909708;29;20127;-90
2024/02/14 06:52:14;;;;;;;4.22;2.30;;;;;;;;;;4911817;29;20067;-90
2024/02/14 06:55:00;;;;;;;5.18;2.38;;;;;;;;;;4905157;29;20035;-90
2024/02/14 06:57:46;;;;;;;6.43;2.58;;;;;;;;;;4905791;29;20079;-90
2024/02/14 07:00:34;;;;;;;7.60;2.90;;;;;;;;;;4916597;29;20439;-90
2024/02/14 07:03:24;;;;;;;6.45;2.63;;;;;;;;;;4913636;29;20309;-90
2024/02/14 07:06:09;;;;;;;6.10;2.83;;;;;;;;;;4923092;29;20502;-86
2024/02/14 07:08:54;;;;;;;7.53;3.42;;;;;;;;;;4909289;29;20031;-87
2024/02/14 07:11:40;;;;;;;6.72;2.53;;;;;;;;;;4898818;29;20036;-85
2024/02/14 07:14:25;;;;;;;6.40;2.80;;;;;;;;;;4913132;29;20023;-86
2024/02/14 07:17:10;;;;;;;11.27;4.72;;;;;;;;;;4898694;29;20039;-87
2024/02/14 07:19:55;;;;;;;9.93;4.38;;;;;;;;;;4898773;29;20475;-88
2024/02/14 07:22:41;;;;;;;8.45;3.05;;;;;;;;;;4898091;29;20039;-84
2024/02/14 07:25:26;;;;;;;5.07;2.90;;;;;;;;;;4894532;29;20032;-86
2024/02/14 07:28:12;;;;;;;6.43;2.42;;;;;;;;;;4897105;29;20028;-85
2024/02/14 07:30:58;;;;;;;4.90;2.25;;;;;;;;;;4898275;29;20043;-84
2024/02/14 07:33:44;;;;;;;4.65;2.42;;;;;;;;;;4903825;29;20190;-84
2024/02/14 07:36:29;;;;;;;6.22;2.47;;;;;;;;;;4909158;29;20390;-87
2024/02/14 07:39:14;;;;;;;6.22;2.58;;;;;;;;;;4912720;29;20567;-86
2024/02/14 07:42:00;;;;;;;4.65;2.25;;;;;;;;;;4904625;29;21455;-86
2024/02/14 07:44:46;;;;;;;8.30;2.65;;;;;;;;;;4908021;29;20043;-88
2024/02/14 07:47:31;;;;;;;8.18;2.60;;;;;;;;;;4906416;29;20495;-89
2024/02/14 07:50:16;;;;;;;5.72;2.50;;;;;;;;;;4915497;29;20108;-88
2024/02/14 07:53:02;;;;;;;7.88;3.53;;;;;;;;;;4915620;29;20094;-85
2024/02/14 07:55:47;;;;;;;4.30;2.33;;;;;;;;;;4913843;29;20040;-87
2024/02/14 07:58:32;;;;;;;9.13;2.20;;;;;;;;;;4916174;29;20024;-88
2024/02/14 08:01:18;;;;;;;5.70;2.60;;;;;;;;;;4916177;29;20360;-87
2024/02/14 08:04:04;;;;;;;5.55;2.42;;;;;;;;;;4915018;29;20083;-86
2024/02/14 08:06:49;;;;;;;5.20;3.00;;;;;;;;;;4915513;29;20042;-88
2024/02/14 08:09:35;;;;;;;4.97;2.75;;;;;;;;;;4913286;29;20046;-86
2024/02/14 08:12:20;;;;;;;8.80;4.05;;;;;;;;;;4916560;29;20028;-88
2024/02/14 08:15:06;;;;;;;6.82;2.85;;;;;;;;;;4914713;29;20024;-90
2024/02/14 08:17:55;;;;;;;5.45;2.33;;;;;;;;;;4915824;29;20028;-89
2024/02/14 08:20:41;;;;;;;10.55;3.92;;;;;;;;;;4915435;29;20035;-88
2024/02/14 08:23:26;;;;;;;14.10;4.03;;;;;;;;;;4920931;29;20043;-90
2024/02/14 08:26:12;;;;;;;9.60;4.20;;;;;;;;;;4929296;29;20019;-89
2024/02/14 08:29:00;;;;;;;7.75;2.90;;;;;;;;;;4916182;29;20059;-89
2024/02/14 08:31:46;;;;;;;11.20;4.27;;;;;;;;;;4909663;29;20099;-89
2024/02/14 08:34:31;;;;;;;8.45;3.80;;;;;;;;;;4914494;29;20038;-88
2024/02/14 08:37:17;;;;;;;9.40;3.35;;;;;;;;;;4917696;29;20063;-90
2024/02/14 08:40:05;;;;;;;8.55;2.85;;;;;;;;;;4915855;29;20034;-89
2024/02/14 08:42:50;;;;;;;5.25;2.70;;;;;;;;;;4907363;29;20027;-88
2024/02/14 08:45:37;;;;;;;5.55;2.80;;;;;;;;;;4916237;29;20059;-89
2024/02/14 08:48:23;;;;;;;5.57;3.00;;;;;;;;;;4910194;29;20043;-88
2024/02/14 08:51:09;;;;;;;6.50;2.83;;;;;;;;;;4916672;29;20042;-90
2024/02/14 08:53:57;;;;;;;5.65;3.05;;;;;;;;;;4919838;29;20019;-89
2024/02/14 08:56:42;;;;;;;6.75;2.72;;;;;;;;;;4913098;29;20091;-89
2024/02/14 08:59:27;;;;;;;6.40;2.40;;;;;;;;;;4921959;29;20106;-88
2024/02/14 09:02:13;;;;;;;5.40;2.63;;;;;;;;;;4935850;29;20034;-89
2024/02/14 09:04:58;;;;;;;5.50;1.88;;;;;;;;;;4919277;29;20040;-87
2024/02/14 09:07:44;;;;;;;5.35;1.83;;;;;;;;;;4906764;29;20024;-87
2024/02/14 09:10:29;;;;;;;3.38;1.83;;;;;;;;;;4919161;29;20035;-87
2024/02/14 09:13:14;;;;;;;3.03;1.60;;;;;;;;;;4919634;29;20130;-89
2024/02/14 09:15:59;;;;;;;2.20;1.50;;;;;;;;;;4918629;29;20034;-88
2024/02/14 09:18:45;;;;;;;3.50;2.15;;;;;;;;;;4919254;29;20394;-88
2024/02/14 09:21:33;;;;;;;2.88;1.92;;;;;;;;;;4906784;29;20032;-88
2024/02/14 09:24:18;;;;;;;2.42;1.77;;;;;;;;;;4919848;29;20110;-89
2024/02/14 09:27:05;;;;;;;2.80;1.67;;;;;;;;;;4941696;29;20032;-89
2024/02/14 09:29:50;;;;;;;5.20;1.73;;;;;;;;;;4918546;29;20046;-88
2024/02/14 09:32:37;;;;;;;4.10;1.80;;;;;;;;;;4916718;29;20752;-89
2024/02/14 09:35:22;;;;;;;5.50;2.40;;;;;;;;;;4918956;29;20135;-89
2024/02/14 09:38:07;;;;;;;4.63;2.22;;;;;;;;;;4919778;29;20059;-91
2024/02/14 09:40:54;;;;;;;4.40;1.95;;;;;;;;;;4918010;29;20107;-89
2024/02/14 09:43:40;;;;;;;7.18;2.33;;;;;;;;;;4918357;29;20032;-89
2024/02/14 09:46:26;;;;;;;6.20;2.47;;;;;;;;;;4910797;29;20122;-88
2024/02/14 09:49:12;;;;;;;6.30;1.92;;;;;;;;;;4918427;29;20039;-89
2024/02/14 09:51:57;;;;;;;6.18;2.78;;;;;;;;;;4918432;29;20046;-90
2024/02/14 09:54:43;;;;;;;4.90;1.80;;;;;;;;;;4917838;29;20031;-89
2024/02/14 09:57:29;;;;;;;4.15;1.60;;;;;;;;;;4918430;29;20019;-89
2024/02/14 10:00:14;;;;;;;4.28;1.38;;;;;;;;;;4918635;29;20034;-90
2024/02/14 10:02:59;;;;;;;2.47;1.60;;;;;;;;;;4918393;29;20098;-90
2024/02/14 10:05:45;;;;;;;3.38;1.50;;;;;;;;;;4918232;29;20042;-90
2024/02/14 10:08:30;;;;;;;3.70;1.48;;;;;;;;;;4918742;29;20028;-89
2024/02/14 10:11:17;;;;;;;4.35;1.40;;;;;;;;;;4917779;29;20023;-90
2024/02/14 10:14:04;;;;;;;11.07;1.98;;;;;;;;;;4918061;29;20039;-90
2024/02/14 10:16:49;;;;;;;4.13;1.67;;;;;;;;;;4918389;29;20032;-90
2024/02/14 10:19:36;;;;;;;3.15;1.77;;;;;;;;;;4931847;29;20033;-91
2024/02/14 10:22:21;;;;;;;2.35;1.30;;;;;;;;;;4918553;29;20031;-90
2024/02/14 10:25:08;;;;;;;3.90;1.85;;;;;;;;;;4905109;29;20039;-89
2024/02/14 10:27:53;;;;;;;5.13;1.67;;;;;;;;;;4931680;29;20042;-89
2024/02/14 10:30:40;;;;;;;4.45;1.70;;;;;;;;;;4908519;29;20020;-89
2024/02/14 10:33:27;;;;;;;3.42;1.40;;;;;;;;;;4931087;29;20022;-91
2024/02/14 10:36:13;;;;;;;4.50;1.60;;;;;;;;;;4918613;29;20028;-90
2024/02/14 10:38:59;;;;;;;2.60;1.50;;;;;;;;;;4918692;29;20036;-90
2024/02/14 10:41:44;;;;;;;3.88;1.50;;;;;;;;;;4918764;29;20028;-90
2024/02/14 10:44:30;;;;;;;3.03;1.35;;;;;;;;;;4930386;29;20031;-90
2024/02/14 10:47:19;;;;;;;2.83;1.40;;;;;;;;;;4929706;29;20095;-90
2024/02/14 10:50:05;;;;;;;3.67;1.90;;;;;;;;;;4904294;29;20048;-92
2024/02/14 10:52:53;;;;;;;4.25;1.55;;;;;;;;;;4896488;29;20035;-89
2024/02/14 10:55:40;;;;;;;2.30;1.50;;;;;;;;;;4898709;29;20498;-89
2024/02/14 10:58:28;;;;;;;2.30;1.38;;;;;;;;;;4898844;29;20196;-89
2024/02/14 11:01:14;;;;;;;3.15;1.63;;;;;;;;;;4899479;29;20032;-90
2024/02/14 11:04:00;;;;;;;3.25;1.45;;;;;;;;;;4901051;29;20028;-89
2024/02/14 11:06:53;;;;;;;2.05;1.23;;;;;;;;;;4904598;29;20019;-92
2024/02/14 11:09:40;;;;;;;3.47;1.15;;;;;;;;;;4901221;29;20112;-87
2024/02/14 11:12:25;;;;;;;2.53;1.20;;;;;;;;;;4894617;29;20098;-88
2024/02/14 11:15:18;;;;;;;5.00;1.63;;;;;;;;;;4898210;29;20111;-89
2024/02/14 11:18:05;;;;;;;2.40;1.25;;;;;;;;;;4897985;29;20024;-89
2024/02/14 11:20:50;;;;;;;3.42;1.15;;;;;;;;;;4898051;29;20038;-89
2024/02/14 11:23:35;;;;;;;4.78;1.30;;;;;;;;;;4898267;29;20035;-89
2024/02/14 11:26:23;;;;;;;5.45;1.33;;;;;;;;;;4885564;29;20039;-88
2024/02/14 11:29:13;;;;;;;2.15;1.40;;;;;;;;;;4897446;29;20028;-89
2024/02/14 11:32:00;;;;;;;1.98;1.20;;;;;;;;;;4900383;29;20027;-90
2024/02/14 11:35:05;;;;;;;2.15;1.27;;;;;;;;;;4898828;29;20035;-89
2024/02/14 11:37:51;;;;;;;2.40;0.80;;;;;;;;;;4898445;29;20043;-88
2024/02/14 11:40:39;;;;;;;1.83;1.10;;;;;;;;;;4897544;29;20040;-88
2024/02/14 11:43:26;;;;;;;3.97;1.10;;;;;;;;;;4897552;29;20044;-88
2024/02/14 11:46:12;;;;;;;1.35;1.00;;;;;;;;;;4897051;29;20456;-88
2024/02/14 11:49:00;;;;;;;3.63;1.40;;;;;;;;;;4915640;29;20450;-90
2024/02/14 11:51:45;;;;;;;2.92;1.80;;;;;;;;;;4916585;29;20388;-88
2024/02/14 11:54:30;;;;;;;1.25;1.10;;;;;;;;;;4916473;29;20024;-89
2024/02/14 11:57:16;;;;;;;1.40;1.27;;;;;;;;;;4915625;29;20039;-88
2024/02/14 12:00:02;;;;;;;1.73;1.00;;;;;;;;;;4916768;29;20058;-87
2024/02/14 12:02:47;;;;;;;1.73;1.27;;;;;;;;;;4905853;29;20026;-89
2024/02/14 12:05:33;;;;;;;1.70;1.20;;;;;;;;;;4916094;29;20387;-89
2024/02/14 12:08:19;;;;;;;1.70;1.08;;;;;;;;;;4916658;29;20118;-88
2024/02/14 12:11:05;;;;;;;1.30;1.17;;;;;;;;;;4929287;29;20028;-88
2024/02/14 12:13:51;;;;;;;1.85;1.27;;;;;;;;;;4916256;29;20023;-83
2024/02/14 12:16:37;;;;;;;2.78;1.05;;;;;;;;;;4920366;29;20039;-85
2024/02/14 12:19:23;;;;;;;1.20;1.10;;;;;;;;;;4918773;29;20027;-85
2024/02/14 12:22:17;;;;;;;3.17;1.00;;;;;;;;;;4929454;29;20046;-86
2024/02/14 12:25:02;;;;;;;1.70;1.10;;;;;;;;;;4917500;29;20123;-86
2024/02/14 12:27:51;;;;;;;2.65;1.13;;;;;;;;;;4932598;29;20118;-85
2024/02/14 12:30:46;;;;;;;3.13;1.42;;;;;;;;;;4918680;29;20034;-85
2024/02/14 12:33:35;;;;;;;1.75;1.17;;;;;;;;;;4922982;29;20078;-84
2024/02/14 12:36:20;;;;;;;2.58;0.95;;;;;;;;;;4919119;29;20027;-84
2024/02/14 12:39:06;;;;;;;2.55;0.90;;;;;;;;;;4906811;29;20087;-85
2024/02/14 12:41:52;;;;;;;1.33;0.98;;;;;;;;;;4921492;29;20091;-82
2024/02/14 12:44:40;;;;;;;3.30;1.00;;;;;;;;;;4922720;29;20091;-82
2024/02/14 12:47:31;;;;;;;1.58;1.15;;;;;;;;;;4918653;29;20024;-83
2024/02/14 12:50:16;;;;;;;2.30;1.10;;;;;;;;;;4931135;29;20066;-83
2024/02/14 12:53:02;;;;;;;3.15;1.30;;;;;;;;;;4933734;29;20039;-82
2024/02/14 12:55:47;;;;;;;1.35;0.90;;;;;;;;;;4917834;29;20313;-84
2024/02/14 12:58:33;;;;;;;2.20;0.98;;;;;;;;;;4918731;29;20106;-84
2024/02/14 13:01:18;;;;;;;1.95;0.90;;;;;;;;;;4907792;29;20034;-83
2024/02/14 13:04:05;;;;;;;2.15;1.00;;;;;;;;;;4917819;29;20028;-84
2024/02/14 13:06:50;;;;;;;1.75;0.93;;;;;;;;;;4935247;29;20039;-83
2024/02/14 13:09:36;;;;;;;5.57;1.42;;;;;;;;;;4923249;29;20024;-83
2024/02/14 13:12:22;;;;;;;1.45;0.88;;;;;;;;;;4917700;29;20032;-86
2024/02/14 13:15:08;;;;;;;1.23;0.80;;;;;;;;;;4931079;29;20036;-84
2024/02/14 13:17:53;;;;;;;3.55;1.15;;;;;;;;;;4917894;29;20071;-84
2024/02/14 13:20:39;;;;;;;1.40;0.88;;;;;;;;;;4929949;29;20061;-82
2024/02/14 13:23:24;;;;;;;1.20;0.98;;;;;;;;;;4942498;29;20020;-82
2024/02/14 13:26:10;;;;;;;4.40;1.52;;;;;;;;;;4934666;29;20034;-82
2024/02/14 13:28:55;;;;;;;1.02;0.77;;;;;;;;;;4939781;29;20054;-83
2024/02/14 13:31:39;;;;;;;0.88;0.80;;;;;;;;;;4955060;29;20058;-84
2024/02/14 13:34:28;;;;;;;2.45;1.20;;;;;;;;;;4935596;29;20046;-82
2024/02/14 13:37:15;;;;;;;0.80;0.80;;;;;;;;;;4919044;29;20042;-83
2024/02/14 13:40:01;;;;;;;2.85;1.08;;;;;;;;;;4918160;29;20031;-83
2024/02/14 13:42:47;;;;;;;0.85;0.85;;;;;;;;;;4919216;29;20041;-83
2024/02/14 13:45:43;;;;;;;0.90;0.70;;;;;;;;;;4917934;29;20035;-84
2024/02/14 13:48:28;;;;;;;0.75;0.75;;;;;;;;;;4925167;29;20118;-83
2024/02/14 13:51:13;;;;;;;1.38;0.90;;;;;;;;;;4916303;29;20037;-82
2024/02/14 13:53:58;;;;;;;0.70;0.70;;;;;;;;;;4918132;29;20383;-84
2024/02/14 13:56:44;;;;;;;1.05;0.90;;;;;;;;;;4917127;29;20034;-84
2024/02/14 13:59:29;;;;;;;3.03;0.90;;;;;;;;;;4917363;29;20030;-84
2024/02/14 14:02:14;;;;;;;2.10;0.82;;;;;;;;;;4916909;29;20059;-84
2024/02/14 14:05:00;;;;;;;0.75;0.70;;;;;;;;;;4921079;29;20039;-82
2024/02/14 14:07:46;;;;;;;0.90;0.80;;;;;;;;;;4917163;29;20091;-87
2024/02/14 14:10:31;;;;;;;4.07;1.27;;;;;;;;;;4917765;29;20032;-84
2024/02/14 14:13:16;;;;;;;0.65;0.60;;;;;;;;;;4917767;29;20070;-86
2024/02/14 14:16:04;;;;;;;0.88;0.73;;;;;;;;;;4917458;29;20023;-87
2024/02/14 14:18:50;;;;;;;1.17;0.85;;;;;;;;;;4926337;29;20044;-86
2024/02/14 14:21:35;;;;;;;1.92;0.93;;;;;;;;;;4918930;29;20055;-87
2024/02/14 14:24:20;;;;;;;1.40;0.80;;;;;;;;;;4917422;29;20034;-89
2024/02/14 14:27:08;;;;;;;1.52;1.20;;;;;;;;;;4931659;29;20062;-86
2024/02/14 14:29:54;;;;;;;2.17;0.80;;;;;;;;;;4917360;29;20114;-85
2024/02/14 14:32:42;;;;;;;1.13;0.80;;;;;;;;;;4917688;29;20059;-88
2024/02/14 14:35:28;;;;;;;2.03;0.80;;;;;;;;;;4918551;29;20012;-88
2024/02/14 14:38:14;;;;;;;1.13;0.80;;;;;;;;;;4918211;29;20035;-89
2024/02/14 14:41:00;;;;;;;1.67;0.80;;;;;;;;;;4925273;29;20067;-85
2024/02/14 14:43:45;;;;;;;4.15;1.10;;;;;;;;;;4921233;29;20081;-85
2024/02/14 14:46:31;;;;;;;1.80;1.00;;;;;;;;;;4915172;29;20031;-83
2024/02/14 14:49:17;;;;;;;2.70;0.90;;;;;;;;;;4910224;29;20050;-88
2024/02/14 14:52:04;;;;;;;2.08;1.30;;;;;;;;;;4913597;29;21072;-85
2024/02/14 14:54:49;;;;;;;1.75;1.17;;;;;;;;;;4915942;29;20495;-88
2024/02/14 14:57:40;;;;;;;1.23;0.95;;;;;;;;;;4929307;29;20031;-84
2024/02/14 15:00:26;;;;;;;1.77;0.85;;;;;;;;;;4915422;29;20016;-87
2024/02/14 15:03:12;;;;;;;1.60;1.00;;;;;;;;;;4932006;29;20035;-86
2024/02/14 15:05:57;;;;;;;1.55;1.10;;;;;;;;;;4919958;29;20032;-85
2024/02/14 15:08:43;;;;;;;2.45;1.20;;;;;;;;;;4915315;29;20035;-88
2024/02/14 15:11:28;;;;;;;2.33;0.85;;;;;;;;;;4918708;29;20043;-90
2024/02/14 15:14:14;;;;;;;2.90;0.80;;;;;;;;;;4902606;29;20022;-88
2024/02/14 15:16:59;;;;;;;2.85;1.15;;;;;;;;;;4916863;29;20437;-87
2024/02/14 15:19:45;;;;;;;1.42;0.80;;;;;;;;;;4936103;29;20035;-88
2024/02/14 15:22:30;;;;;;;1.05;0.80;;;;;;;;;;4922299;29;20079;-90
2024/02/14 15:25:15;;;;;;;2.35;0.90;;;;;;;;;;4919765;29;20660;-87
2024/02/14 15:28:12;;;;;;;1.23;0.88;;;;;;;;;;4922188;29;20040;-88
2024/02/14 15:34:03;;;;;;;1.45;0.85;;;;;;;;;;4922642;29;20467;-86
2024/02/14 15:36:48;;;;;;;3.13;0.90;;;;;;;;;;4917075;29;20057;-89
2024/02/14 15:39:33;;;;;;;1.15;0.90;;;;;;;;;;4918467;29;20035;-89
2024/02/14 15:42:19;;;;;;;2.10;0.82;;;;;;;;;;4930336;29;20078;-88
2024/02/14 15:45:06;;;;;;;2.35;1.00;;;;;;;;;;4916338;29;20035;-88
2024/02/14 15:47:51;;;;;;;1.45;0.90;;;;;;;;;;4913241;29;20095;-89
2024/02/14 15:50:36;;;;;;;1.33;0.90;;;;;;;;;;4917746;29;20059;-89
2024/02/14 15:53:26;;;;;;;1.20;1.02;;;;;;;;;;4928892;29;20098;-89
2024/02/14 15:56:13;;;;;;;1.17;0.70;;;;;;;;;;4925870;29;20032;-88
2024/02/14 15:58:58;;;;;;;1.83;0.90;;;;;;;;;;4918073;29;20035;-89
2024/02/14 16:01:43;;;;;;;2.00;1.08;;;;;;;;;;4919474;29;20031;-90
2024/02/14 16:04:29;;;;;;;1.67;1.00;;;;;;;;;;4920526;29;20091;-89
2024/02/14 16:07:14;;;;;;;2.03;1.23;;;;;;;;;;4917038;29;20058;-90
2024/02/14 16:10:00;;;;;;;1.08;0.95;;;;;;;;;;4915956;29;20031;-89
2024/02/14 16:12:46;;;;;;;2.92;1.08;;;;;;;;;;4918803;29;20482;-89
2024/02/14 16:15:31;;;;;;;1.48;0.90;;;;;;;;;;4911148;29;20035;-86
2024/02/14 16:18:19;;;;;;;1.45;1.20;;;;;;;;;;4915650;29;20027;-90
2024/02/14 16:21:05;;;;;;;2.30;1.20;;;;;;;;;;4933644;29;20038;-89
2024/02/14 16:23:50;;;;;;;2.10;1.00;;;;;;;;;;4932997;29;20340;-90
2024/02/14 16:26:36;;;;;;;2.20;1.20;;;;;;;;;;4908201;29;20043;-89
2024/02/14 16:29:21;;;;;;;3.80;1.65;;;;;;;;;;4933221;29;20035;-89
2024/02/14 16:32:07;;;;;;;2.40;1.40;;;;;;;;;;4920292;29;20032;-90
2024/02/14 16:34:52;;;;;;;3.25;1.65;;;;;;;;;;4917972;29;20034;-85
2024/02/14 16:37:37;;;;;;;1.67;1.17;;;;;;;;;;4935212;29;20030;-83
2024/02/14 16:40:22;;;;;;;2.67;1.58;;;;;;;;;;4919643;29;20530;-89